sensor_id;sensor_type;location;lat;lon;timestamp;temperature;humidity
69634;DHT22;56860;51.144;16.954;2024-03-17T00:00:31;5.3;40.6
69634;DHT22;56860;51.144;16.954;2024-03-17T00:01:30;5.3;40.5
69634;DHT22;56860;51.144;16.954;2024-03-17T00:02:30;5.3;40.6
69634;DHT22;56860;51.144;16.954;2024-03-17T00:03:30;5.3;40.4
69634;DHT22;56860;51.144;16.954;2024-03-17T00:04:30;5.3;40.5
69634;DHT22;56860;51.144;16.954;2024-03-17T00:05:30;5.4;40.3
69634;DHT22;56860;51.144;16.954;2024-03-17T00:06:30;5.4;40.3
69634;DHT22;56860;51.144;16.954;2024-03-17T00:07:30;5.4;40.1
69634;DHT22;56860;51.144;16.954;2024-03-17T00:08:30;5.4;40.1
69634;DHT22;56860;51.144;16.954;2024-03-17T00:09:30;unavailable;unavailable
69634;DHT22;56860;51.144;16.954;2024-03-17T00:10:30;5.5;39.8
69634;DHT22;56860;51.144;16.954;2024-03-17T00:11:30;5.5;39.9
69634;DHT22;56860;51.144;16.954;2024-03-17T00:12:30;5.4;39.5
69634;DHT22;56860;51.144;16.954;2024-03-17T00:13:30;5.4;39.9
69634;DHT22;56860;51.144;16.954;2024-03-17T00:14:30;5.4;40.0
69634;DHT22;56860;51.144;16.954;2024-03-17T00:15:30;5.4;40.0
69634;DHT22;56860;51.144;16.954;2024-03-17T00:16:31;5.4;40.0
69634;DHT22;56860;51.144;16.954;2024-03-17T00:17:30;5.4;40.1
69634;DHT22;56860;51.144;16.954;2024-03-17T00:18:30;5.3;39.8
69634;DHT22;56860;51.144;16.954;2024-03-17T00:19:30;5.3;39.9
69634;DHT22;56860;51.144;16.954;2024-03-17T00:20:30;5.3;40.4
69634;DHT22;56860;51.144;16.954;2024-03-17T00:21:30;5.3;40.5
69634;DHT22;56860;51.144;16.954;2024-03-17T00:22:30;5.2;40.5
69634;DHT22;56860;51.144;16.954;2024-03-17T00:23:30;5.2;40.5
69634;DHT22;56860;51.144;16.954;2024-03-17T00:24:30;5.2;40.5
69634;DHT22;56860;51.144;16.954;2024-03-17T00:25:30;5.3;40.5
69634;DHT22;56860;51.144;16.954;2024-03-17T00:26:30;5.4;40.3
69634;DHT22;56860;51.144;16.954;2024-03-17T00:27:31;5.3;40.1
69634;DHT22;56860;51.144;16.954;2024-03-17T00:28:30;5.3;39.8
69634;DHT22;56860;51.144;16.954;2024-03-17T00:29:30;5.2;40.0
69634;DHT22;56860;51.144;16.954;2024-03-17T00:30:30;5.2;40.4
69634;DHT22;56860;51.144;16.954;2024-03-17T00:31:30;5.3;40.5
69634;DHT22;56860;51.144;16.954;2024-03-17T00:32:30;5.4;40.2
69634;DHT22;56860;51.144;16.954;2024-03-17T00:33:30;5.4;39.6
69634;DHT22;56860;51.144;16.954;2024-03-17T00:34:30;5.4;39.9
69634;DHT22;56860;51.144;16.954;2024-03-17T00:35:30;5.4;40.0
69634;DHT22;56860;51.144;16.954;2024-03-17T00:36:31;5.4;39.4
69634;DHT22;56860;51.144;16.954;2024-03-17T00:37:30;5.4;39.7
69634;DHT22;56860;51.144;16.954;2024-03-17T00:38:30;5.4;39.7
69634;DHT22;56860;51.144;16.954;2024-03-17T00:39:30;unavailable;unavailable
69634;DHT22;56860;51.144;16.954;2024-03-17T00:40:31;5.3;40.4
69634;DHT22;56860;51.144;16.954;2024-03-17T00:41:30;5.3;40.3
69634;DHT22;56860;51.144;16.954;2024-03-17T00:42:31;5.2;40.4
69634;DHT22;56860;51.144;16.954;2024-03-17T00:43:30;5.3;40.5
69634;DHT22;56860;51.144;16.954;2024-03-17T00:44:30;unavailable;unavailable
69634;DHT22;56860;51.144;16.954;2024-03-17T00:45:30;5.4;39.9
69634;DHT22;56860;51.144;16.954;2024-03-17T00:46:30;5.4;39.8
69634;DHT22;56860;51.144;16.954;2024-03-17T00:47:30;5.4;39.6
69634;DHT22;56860;51.144;16.954;2024-03-17T00:48:30;5.4;40.0
69634;DHT22;56860;51.144;16.954;2024-03-17T00:49:30;5.3;40.0
69634;DHT22;56860;51.144;16.954;2024-03-17T00:50:31;5.3;40.0
69634;DHT22;56860;51.144;16.954;2024-03-17T00:51:30;5.3;40.1
69634;DHT22;56860;51.144;16.954;2024-03-17T00:52:30;5.2;40.4
69634;DHT22;56860;51.144;16.954;2024-03-17T00:53:30;5.3;40.3
69634;DHT22;56860;51.144;16.954;2024-03-17T00:54:30;5.3;40.1
69634;DHT22;56860;51.144;16.954;2024-03-17T00:55:30;5.3;40.1
69634;DHT22;56860;51.144;16.954;2024-03-17T00:56:30;5.2;40.4
69634;DHT22;56860;51.144;16.954;2024-03-17T00:57:30;5.2;40.4
69634;DHT22;56860;51.144;16.954;2024-03-17T00:58:30;5.1;40.4
69634;DHT22;56860;51.144;16.954;2024-03-17T00:59:30;5.1;40.5
69634;DHT22;56860;51.144;16.954;2024-03-17T01:00:30;5.1;40.6
69634;DHT22;56860;51.144;16.954;2024-03-17T01:01:30;5.0;40.7
69634;DHT22;56860;51.144;16.954;2024-03-17T01:02:30;5.0;40.8
69634;DHT22;56860;51.144;16.954;2024-03-17T01:03:30;5.0;40.9
69634;DHT22;56860;51.144;16.954;2024-03-17T01:04:30;5.0;41.0
69634;DHT22;56860;51.144;16.954;2024-03-17T01:05:30;5.0;40.6
69634;DHT22;56860;51.144;16.954;2024-03-17T01:06:30;unavailable;unavailable
69634;DHT22;56860;51.144;16.954;2024-03-17T01:07:30;4.9;41.3
69634;DHT22;56860;51.144;16.954;2024-03-17T01:08:30;4.9;41.5
69634;DHT22;56860;51.144;16.954;2024-03-17T01:09:30;4.8;41.7
69634;DHT22;56860;51.144;16.954;2024-03-17T01:10:30;4.8;42.0
69634;DHT22;56860;51.144;16.954;2024-03-17T01:11:30;unavailable;unavailable
69634;DHT22;56860;51.144;16.954;2024-03-17T01:12:30;4.8;42.1
69634;DHT22;56860;51.144;16.954;2024-03-17T01:13:30;4.7;42.1
69634;DHT22;56860;51.144;16.954;2024-03-17T01:14:30;4.7;42.0
69634;DHT22;56860;51.144;16.954;2024-03-17T01:15:30;4.7;42.2
69634;DHT22;56860;51.144;16.954;2024-03-17T01:16:30;4.7;42.2
69634;DHT22;56860;51.144;16.954;2024-03-17T01:17:30;4.7;42.1
69634;DHT22;56860;51.144;16.954;2024-03-17T01:18:30;4.8;41.7
69634;DHT22;56860;51.144;16.954;2024-03-17T01:19:31;4.8;41.6
69634;DHT22;56860;51.144;16.954;2024-03-17T01:20:31;4.8;41.7
69634;DHT22;56860;51.144;16.954;2024-03-17T01:21:30;4.8;41.7
69634;DHT22;56860;51.144;16.954;2024-03-17T01:22:31;4.7;41.1
69634;DHT22;56860;51.144;16.954;2024-03-17T01:23:30;4.7;42.0
69634;DHT22;56860;51.144;16.954;2024-03-17T01:24:30;4.7;41.5
69634;DHT22;56860;51.144;16.954;2024-03-17T01:25:30;unavailable;unavailable
69634;DHT22;56860;51.144;16.954;2024-03-17T01:26:30;4.7;42.1
69634;DHT22;56860;51.144;16.954;2024-03-17T01:27:30;4.7;42.0
69634;DHT22;56860;51.144;16.954;2024-03-17T01:28:30;4.6;42.3
69634;DHT22;56860;51.144;16.954;2024-03-17T01:29:30;4.5;42.6
69634;DHT22;56860;51.144;16.954;2024-03-17T01:30:30;unavailable;unavailable
69634;DHT22;56860;51.144;16.954;2024-03-17T01:31:30;4.4;43.1
69634;DHT22;56860;51.144;16.954;2024-03-17T01:32:30;4.3;43.4
69634;DHT22;56860;51.144;16.954;2024-03-17T01:33:30;4.4;43.3
69634;DHT22;56860;51.144;16.954;2024-03-17T01:36:30;4.4;43.3
69634;DHT22;56860;51.144;16.954;2024-03-17T01:37:30;4.4;43.3
69634;DHT22;56860;51.144;16.954;2024-03-17T01:38:30;4.3;43.3
69634;DHT22;56860;51.144;16.954;2024-03-17T01:39:30;4.3;43.5
69634;DHT22;56860;51.144;16.954;2024-03-17T01:40:30;4.3;43.5
69634;DHT22;56860;51.144;16.954;2024-03-17T01:41:30;4.3;43.4
69634;DHT22;56860;51.144;16.954;2024-03-17T01:42:30;4.4;43.3
69634;DHT22;56860;51.144;16.954;2024-03-17T01:43:30;4.3;42.9
69634;DHT22;56860;51.144;16.954;2024-03-17T01:44:30;4.3;43.3
69634;DHT22;56860;51.144;16.954;2024-03-17T01:45:31;4.3;43.4
69634;DHT22;56860;51.144;16.954;2024-03-17T01:46:30;4.4;43.1
69634;DHT22;56860;51.144;16.954;2024-03-17T01:47:30;4.5;43.0
69634;DHT22;56860;51.144;16.954;2024-03-17T01:48:30;4.5;43.0
69634;DHT22;56860;51.144;16.954;2024-03-17T01:49:30;4.5;43.0
69634;DHT22;56860;51.144;16.954;2024-03-17T01:50:31;4.4;43.1
69634;DHT22;56860;51.144;16.954;2024-03-17T01:51:30;4.5;43.0
69634;DHT22;56860;51.144;16.954;2024-03-17T01:52:31;4.5;42.9
69634;DHT22;56860;51.144;16.954;2024-03-17T01:53:30;4.5;42.9
69634;DHT22;56860;51.144;16.954;2024-03-17T01:54:30;4.4;43.0
69634;DHT22;56860;51.144;16.954;2024-03-17T01:55:30;unavailable;unavailable
69634;DHT22;56860;51.144;16.954;2024-03-17T01:56:30;4.4;43.0
69634;DHT22;56860;51.144;16.954;2024-03-17T01:57:30;4.4;43.0
69634;DHT22;56860;51.144;16.954;2024-03-17T01:58:30;4.4;42.9
69634;DHT22;56860;51.144;16.954;2024-03-17T01:59:30;4.5;42.1
69634;DHT22;56860;51.144;16.954;2024-03-17T02:00:30;unavailable;unavailable
69634;DHT22;56860;51.144;16.954;2024-03-17T02:01:30;4.3;42.6
69634;DHT22;56860;51.144;16.954;2024-03-17T02:02:30;4.3;43.0
69634;DHT22;56860;51.144;16.954;2024-03-17T02:03:30;4.3;43.3
69634;DHT22;56860;51.144;16.954;2024-03-17T02:04:30;4.2;43.4
69634;DHT22;56860;51.144;16.954;2024-03-17T02:05:30;unavailable;unavailable
69634;DHT22;56860;51.144;16.954;2024-03-17T02:06:30;4.2;43.5
69634;DHT22;56860;51.144;16.954;2024-03-17T02:07:31;4.2;43.6
69634;DHT22;56860;51.144;16.954;2024-03-17T02:08:45;4.2;43.6
69634;DHT22;56860;51.144;16.954;2024-03-17T02:09:30;4.1;43.6
69634;DHT22;56860;51.144;16.954;2024-03-17T02:10:30;4.1;43.6
69634;DHT22;56860;51.144;16.954;2024-03-17T02:11:31;4.2;43.6
69634;DHT22;56860;51.144;16.954;2024-03-17T02:12:30;unavailable;unavailable
69634;DHT22;56860;51.144;16.954;2024-03-17T02:13:31;4.2;43.4
69634;DHT22;56860;51.144;16.954;2024-03-17T02:14:30;4.2;43.4
69634;DHT22;56860;51.144;16.954;2024-03-17T02:15:30;4.2;43.2
69634;DHT22;56860;51.144;16.954;2024-03-17T02:16:30;4.2;43.1
69634;DHT22;56860;51.144;16.954;2024-03-17T02:17:31;unavailable;unavailable
69634;DHT22;56860;51.144;16.954;2024-03-17T02:18:30;4.2;42.9
69634;DHT22;56860;51.144;16.954;2024-03-17T02:19:31;4.2;43.0
69634;DHT22;56860;51.144;16.954;2024-03-17T02:20:30;4.2;42.8
69634;DHT22;56860;51.144;16.954;2024-03-17T02:21:30;4.1;43.0
69634;DHT22;56860;51.144;16.954;2024-03-17T02:22:30;4.1;43.0
69634;DHT22;56860;51.144;16.954;2024-03-17T02:23:30;4.1;43.1
69634;DHT22;56860;51.144;16.954;2024-03-17T02:24:31;unavailable;unavailable
69634;DHT22;56860;51.144;16.954;2024-03-17T02:25:31;4.2;42.4
69634;DHT22;56860;51.144;16.954;2024-03-17T02:26:30;4.2;42.3
69634;DHT22;56860;51.144;16.954;2024-03-17T02:27:30;4.2;42.2
69634;DHT22;56860;51.144;16.954;2024-03-17T02:28:37;4.2;42.2
69634;DHT22;56860;51.144;16.954;2024-03-17T02:29:30;4.2;42.0
69634;DHT22;56860;51.144;16.954;2024-03-17T02:30:30;4.3;41.8
69634;DHT22;56860;51.144;16.954;2024-03-17T02:31:30;4.4;41.6
69634;DHT22;56860;51.144;16.954;2024-03-17T02:32:30;4.4;41.3
69634;DHT22;56860;51.144;16.954;2024-03-17T02:33:30;4.4;41.2
69634;DHT22;56860;51.144;16.954;2024-03-17T02:34:30;4.4;41.0
69634;DHT22;56860;51.144;16.954;2024-03-17T02:35:30;4.4;41.1
69634;DHT22;56860;51.144;16.954;2024-03-17T02:36:30;4.4;41.1
69634;DHT22;56860;51.144;16.954;2024-03-17T02:37:30;4.3;41.2
69634;DHT22;56860;51.144;16.954;2024-03-17T02:38:30;4.3;41.4
69634;DHT22;56860;51.144;16.954;2024-03-17T02:39:31;4.2;41.8
69634;DHT22;56860;51.144;16.954;2024-03-17T02:40:30;4.1;42.2
69634;DHT22;56860;51.144;16.954;2024-03-17T02:41:30;4.0;42.6
69634;DHT22;56860;51.144;16.954;2024-03-17T02:42:30;4.0;42.7
69634;DHT22;56860;51.144;16.954;2024-03-17T02:43:30;4.0;42.6
69634;DHT22;56860;51.144;16.954;2024-03-17T02:44:31;4.0;42.7
69634;DHT22;56860;51.144;16.954;2024-03-17T02:45:30;unavailable;unavailable
69634;DHT22;56860;51.144;16.954;2024-03-17T02:46:31;3.9;43.0
69634;DHT22;56860;51.144;16.954;2024-03-17T02:47:30;3.9;43.1
69634;DHT22;56860;51.144;16.954;2024-03-17T02:48:30;3.9;43.2
69634;DHT22;56860;51.144;16.954;2024-03-17T02:49:31;3.8;43.3
69634;DHT22;56860;51.144;16.954;2024-03-17T02:50:30;3.8;43.5
69634;DHT22;56860;51.144;16.954;2024-03-17T02:51:30;3.9;43.5
69634;DHT22;56860;51.144;16.954;2024-03-17T02:52:30;3.9;42.5
69634;DHT22;56860;51.144;16.954;2024-03-17T02:53:30;3.9;42.9
69634;DHT22;56860;51.144;16.954;2024-03-17T02:54:31;3.9;42.9
69634;DHT22;56860;51.144;16.954;2024-03-17T02:55:30;3.9;42.9
69634;DHT22;56860;51.144;16.954;2024-03-17T02:56:30;3.9;43.0
69634;DHT22;56860;51.144;16.954;2024-03-17T02:57:30;3.9;43.0
69634;DHT22;56860;51.144;16.954;2024-03-17T02:58:30;3.9;42.9
69634;DHT22;56860;51.144;16.954;2024-03-17T02:59:30;3.9;42.9
69634;DHT22;56860;51.144;16.954;2024-03-17T03:00:30;3.9;42.7
69634;DHT22;56860;51.144;16.954;2024-03-17T03:01:30;4.0;42.6
69634;DHT22;56860;51.144;16.954;2024-03-17T03:02:30;4.0;42.4
69634;DHT22;56860;51.144;16.954;2024-03-17T03:03:30;4.0;42.2
69634;DHT22;56860;51.144;16.954;2024-03-17T03:04:30;4.1;41.9
69634;DHT22;56860;51.144;16.954;2024-03-17T03:05:30;4.1;41.9
69634;DHT22;56860;51.144;16.954;2024-03-17T03:06:31;4.1;41.8
69634;DHT22;56860;51.144;16.954;2024-03-17T03:07:31;4.1;41.7
69634;DHT22;56860;51.144;16.954;2024-03-17T03:08:30;unavailable;unavailable
69634;DHT22;56860;51.144;16.954;2024-03-17T03:09:30;4.0;41.6
69634;DHT22;56860;51.144;16.954;2024-03-17T03:10:30;4.1;41.7
69634;DHT22;56860;51.144;16.954;2024-03-17T03:11:30;4.1;41.4
69634;DHT22;56860;51.144;16.954;2024-03-17T03:12:30;4.0;41.3
69634;DHT22;56860;51.144;16.954;2024-03-17T03:13:30;4.0;41.6
69634;DHT22;56860;51.144;16.954;2024-03-17T03:14:30;3.9;42.0
69634;DHT22;56860;51.144;16.954;2024-03-17T03:15:30;3.8;42.2
69634;DHT22;56860;51.144;16.954;2024-03-17T03:16:30;3.8;42.3
69634;DHT22;56860;51.144;16.954;2024-03-17T03:17:30;3.7;42.5
69634;DHT22;56860;51.144;16.954;2024-03-17T03:18:30;3.6;42.7
69634;DHT22;56860;51.144;16.954;2024-03-17T03:19:31;unavailable;unavailable
69634;DHT22;56860;51.144;16.954;2024-03-17T03:20:30;3.6;42.9
69634;DHT22;56860;51.144;16.954;2024-03-17T03:21:30;3.6;43.0
69634;DHT22;56860;51.144;16.954;2024-03-17T03:22:30;3.5;43.0
69634;DHT22;56860;51.144;16.954;2024-03-17T03:23:31;3.5;43.1
69634;DHT22;56860;51.144;16.954;2024-03-17T03:24:30;unavailable;unavailable
69634;DHT22;56860;51.144;16.954;2024-03-17T03:25:31;3.6;42.9
69634;DHT22;56860;51.144;16.954;2024-03-17T03:26:30;3.6;42.9
69634;DHT22;56860;51.144;16.954;2024-03-17T03:27:30;3.7;42.8
69634;DHT22;56860;51.144;16.954;2024-03-17T03:28:32;3.7;42.8
69634;DHT22;56860;51.144;16.954;2024-03-17T03:29:31;unavailable;unavailable
69634;DHT22;56860;51.144;16.954;2024-03-17T03:30:30;3.6;42.7
69634;DHT22;56860;51.144;16.954;2024-03-17T03:31:31;3.6;42.9
69634;DHT22;56860;51.144;16.954;2024-03-17T03:32:30;3.6;42.9
69634;DHT22;56860;51.144;16.954;2024-03-17T03:33:30;3.6;42.5
69634;DHT22;56860;51.144;16.954;2024-03-17T03:34:30;unavailable;unavailable
69634;DHT22;56860;51.144;16.954;2024-03-17T03:35:30;3.5;43.1
69634;DHT22;56860;51.144;16.954;2024-03-17T03:36:30;3.6;43.2
69634;DHT22;56860;51.144;16.954;2024-03-17T03:37:31;3.6;43.2
69634;DHT22;56860;51.144;16.954;2024-03-17T03:38:30;3.6;43.2
69634;DHT22;56860;51.144;16.954;2024-03-17T03:39:30;3.5;43.2
69634;DHT22;56860;51.144;16.954;2024-03-17T03:40:30;3.5;43.2
69634;DHT22;56860;51.144;16.954;2024-03-17T03:41:31;3.6;42.9
69634;DHT22;56860;51.144;16.954;2024-03-17T03:42:30;3.6;42.7
69634;DHT22;56860;51.144;16.954;2024-03-17T03:43:30;unavailable;unavailable
69634;DHT22;56860;51.144;16.954;2024-03-17T03:44:30;3.8;41.1
69634;DHT22;56860;51.144;16.954;2024-03-17T03:45:30;3.8;41.7
69634;DHT22;56860;51.144;16.954;2024-03-17T03:46:30;3.8;41.8
69634;DHT22;56860;51.144;16.954;2024-03-17T03:47:30;3.8;41.7
69634;DHT22;56860;51.144;16.954;2024-03-17T03:48:31;3.9;41.6
69634;DHT22;56860;51.144;16.954;2024-03-17T03:49:31;3.9;41.4
69634;DHT22;56860;51.144;16.954;2024-03-17T03:50:31;3.9;41.4
69634;DHT22;56860;51.144;16.954;2024-03-17T03:51:30;3.9;41.4
69634;DHT22;56860;51.144;16.954;2024-03-17T03:52:30;3.9;41.3
69634;DHT22;56860;51.144;16.954;2024-03-17T03:53:30;3.9;41.0
69634;DHT22;56860;51.144;16.954;2024-03-17T03:54:31;3.9;41.0
69634;DHT22;56860;51.144;16.954;2024-03-17T03:55:31;unavailable;unavailable
69634;DHT22;56860;51.144;16.954;2024-03-17T03:56:30;3.9;41.1
69634;DHT22;56860;51.144;16.954;2024-03-17T03:57:30;3.9;41.1
69634;DHT22;56860;51.144;16.954;2024-03-17T03:58:30;3.9;41.0
69634;DHT22;56860;51.144;16.954;2024-03-17T03:59:30;3.9;40.9
69634;DHT22;56860;51.144;16.954;2024-03-17T04:00:30;3.9;40.9
69634;DHT22;56860;51.144;16.954;2024-03-17T04:01:31;unavailable;unavailable
69634;DHT22;56860;51.144;16.954;2024-03-17T04:02:30;3.9;40.9
69634;DHT22;56860;51.144;16.954;2024-03-17T04:03:30;3.8;41.1
69634;DHT22;56860;51.144;16.954;2024-03-17T04:04:30;3.8;41.2
69634;DHT22;56860;51.144;16.954;2024-03-17T04:05:30;3.8;41.3
69634;DHT22;56860;51.144;16.954;2024-03-17T04:06:30;3.7;41.4
69634;DHT22;56860;51.144;16.954;2024-03-17T04:07:31;3.6;40.9
69634;DHT22;56860;51.144;16.954;2024-03-17T04:08:30;3.6;41.5
69634;DHT22;56860;51.144;16.954;2024-03-17T04:09:30;3.6;41.7
69634;DHT22;56860;51.144;16.954;2024-03-17T04:10:30;3.6;41.7
69634;DHT22;56860;51.144;16.954;2024-03-17T04:11:32;3.7;41.3
69634;DHT22;56860;51.144;16.954;2024-03-17T04:12:30;3.7;41.2
69634;DHT22;56860;51.144;16.954;2024-03-17T04:13:30;3.6;40.8
69634;DHT22;56860;51.144;16.954;2024-03-17T04:14:30;3.6;41.3
69634;DHT22;56860;51.144;16.954;2024-03-17T04:15:30;3.6;41.4
69634;DHT22;56860;51.144;16.954;2024-03-17T04:16:30;3.7;41.3
69634;DHT22;56860;51.144;16.954;2024-03-17T04:17:30;3.7;41.2
69634;DHT22;56860;51.144;16.954;2024-03-17T04:18:31;3.7;41.0
69634;DHT22;56860;51.144;16.954;2024-03-17T04:19:31;3.7;41.1
69634;DHT22;56860;51.144;16.954;2024-03-17T04:20:30;3.6;41.1
69634;DHT22;56860;51.144;16.954;2024-03-17T04:21:30;3.6;41.5
69634;DHT22;56860;51.144;16.954;2024-03-17T04:22:31;3.6;41.6
69634;DHT22;56860;51.144;16.954;2024-03-17T04:23:31;3.6;41.5
69634;DHT22;56860;51.144;16.954;2024-03-17T04:24:30;3.6;41.2
69634;DHT22;56860;51.144;16.954;2024-03-17T04:25:31;unavailable;unavailable
69634;DHT22;56860;51.144;16.954;2024-03-17T04:26:30;3.7;41.0
69634;DHT22;56860;51.144;16.954;2024-03-17T04:27:30;3.7;40.9
69634;DHT22;56860;51.144;16.954;2024-03-17T04:28:30;3.7;41.0
69634;DHT22;56860;51.144;16.954;2024-03-17T04:29:30;3.7;40.9
69634;DHT22;56860;51.144;16.954;2024-03-17T04:30:30;unavailable;unavailable
69634;DHT22;56860;51.144;16.954;2024-03-17T04:31:31;3.6;40.9
69634;DHT22;56860;51.144;16.954;2024-03-17T04:32:30;3.6;40.8
69634;DHT22;56860;51.144;16.954;2024-03-17T04:33:31;3.6;40.8
69634;DHT22;56860;51.144;16.954;2024-03-17T04:34:30;3.5;41.0
69634;DHT22;56860;51.144;16.954;2024-03-17T04:35:30;3.4;41.4
69634;DHT22;56860;51.144;16.954;2024-03-17T04:36:30;3.4;41.5
69634;DHT22;56860;51.144;16.954;2024-03-17T04:37:31;3.4;41.6
69634;DHT22;56860;51.144;16.954;2024-03-17T04:38:30;3.3;42.0
69634;DHT22;56860;51.144;16.954;2024-03-17T04:39:30;3.2;42.1
69634;DHT22;56860;51.144;16.954;2024-03-17T04:40:31;3.2;41.9
69634;DHT22;56860;51.144;16.954;2024-03-17T04:41:30;3.1;42.6
69634;DHT22;56860;51.144;16.954;2024-03-17T04:42:30;3.0;42.9
69634;DHT22;56860;51.144;16.954;2024-03-17T04:43:31;3.0;43.3
69634;DHT22;56860;51.144;16.954;2024-03-17T04:44:30;3.0;43.4
69634;DHT22;56860;51.144;16.954;2024-03-17T04:45:30;unavailable;unavailable
69634;DHT22;56860;51.144;16.954;2024-03-17T04:46:31;2.9;43.7
69634;DHT22;56860;51.144;16.954;2024-03-17T04:47:30;2.9;43.8
69634;DHT22;56860;51.144;16.954;2024-03-17T04:48:31;2.9;43.8
69634;DHT22;56860;51.144;16.954;2024-03-17T04:49:31;2.9;43.9
69634;DHT22;56860;51.144;16.954;2024-03-17T04:50:30;2.9;44.0
69634;DHT22;56860;51.144;16.954;2024-03-17T04:51:30;2.9;44.0
69634;DHT22;56860;51.144;16.954;2024-03-17T04:52:30;2.8;43.9
69634;DHT22;56860;51.144;16.954;2024-03-17T04:53:30;2.8;44.1
69634;DHT22;56860;51.144;16.954;2024-03-17T04:54:31;2.8;44.0
69634;DHT22;56860;51.144;16.954;2024-03-17T04:55:31;2.8;44.0
69634;DHT22;56860;51.144;16.954;2024-03-17T04:56:30;2.8;44.0
69634;DHT22;56860;51.144;16.954;2024-03-17T04:57:30;2.9;43.4
69634;DHT22;56860;51.144;16.954;2024-03-17T04:58:31;2.9;43.7
69634;DHT22;56860;51.144;16.954;2024-03-17T04:59:33;2.9;43.8
69634;DHT22;56860;51.144;16.954;2024-03-17T05:00:30;2.9;43.6
69634;DHT22;56860;51.144;16.954;2024-03-17T05:01:31;2.9;43.6
69634;DHT22;56860;51.144;16.954;2024-03-17T05:02:31;2.9;43.5
69634;DHT22;56860;51.144;16.954;2024-03-17T05:03:30;2.8;43.5
69634;DHT22;56860;51.144;16.954;2024-03-17T05:04:30;2.8;43.6
69634;DHT22;56860;51.144;16.954;2024-03-17T05:05:30;2.9;43.6
69634;DHT22;56860;51.144;16.954;2024-03-17T05:06:30;2.9;43.5
69634;DHT22;56860;51.144;16.954;2024-03-17T05:07:31;2.9;43.6
69634;DHT22;56860;51.144;16.954;2024-03-17T05:08:31;2.9;43.5
69634;DHT22;56860;51.144;16.954;2024-03-17T05:09:30;2.9;43.6
69634;DHT22;56860;51.144;16.954;2024-03-17T05:10:30;2.8;43.5
69634;DHT22;56860;51.144;16.954;2024-03-17T05:11:30;2.8;43.6
69634;DHT22;56860;51.144;16.954;2024-03-17T05:12:30;2.8;43.7
69634;DHT22;56860;51.144;16.954;2024-03-17T05:13:31;2.8;43.6
69634;DHT22;56860;51.144;16.954;2024-03-17T05:14:30;2.8;43.7
69634;DHT22;56860;51.144;16.954;2024-03-17T05:15:30;2.8;43.8
69634;DHT22;56860;51.144;16.954;2024-03-17T05:16:31;2.7;43.6
69634;DHT22;56860;51.144;16.954;2024-03-17T05:17:30;2.8;43.7
69634;DHT22;56860;51.144;16.954;2024-03-17T05:18:31;unavailable;unavailable
69634;DHT22;56860;51.144;16.954;2024-03-17T05:19:31;2.7;43.5
69634;DHT22;56860;51.144;16.954;2024-03-17T05:20:30;2.7;43.8
69634;DHT22;56860;51.144;16.954;2024-03-17T05:21:30;2.7;43.7
69634;DHT22;56860;51.144;16.954;2024-03-17T05:22:30;2.7;44.0
69634;DHT22;56860;51.144;16.954;2024-03-17T05:23:31;2.7;44.0
69634;DHT22;56860;51.144;16.954;2024-03-17T05:24:30;2.7;44.0
69634;DHT22;56860;51.144;16.954;2024-03-17T05:25:31;2.6;44.1
69634;DHT22;56860;51.144;16.954;2024-03-17T05:26:31;2.6;44.2
69634;DHT22;56860;51.144;16.954;2024-03-17T05:27:31;2.5;44.1
69634;DHT22;56860;51.144;16.954;2024-03-17T05:28:31;2.5;44.3
69634;DHT22;56860;51.144;16.954;2024-03-17T05:29:30;2.5;44.3
69634;DHT22;56860;51.144;16.954;2024-03-17T05:30:30;2.6;44.4
69634;DHT22;56860;51.144;16.954;2024-03-17T05:31:31;2.6;44.2
69634;DHT22;56860;51.144;16.954;2024-03-17T05:32:30;2.6;44.1
69634;DHT22;56860;51.144;16.954;2024-03-17T05:33:31;2.6;44.2
69634;DHT22;56860;51.144;16.954;2024-03-17T05:34:31;2.5;44.3
69634;DHT22;56860;51.144;16.954;2024-03-17T05:35:30;2.6;44.2
69634;DHT22;56860;51.144;16.954;2024-03-17T05:36:30;2.6;44.2
69634;DHT22;56860;51.144;16.954;2024-03-17T05:37:31;2.6;44.0
69634;DHT22;56860;51.144;16.954;2024-03-17T05:38:30;2.6;44.0
69634;DHT22;56860;51.144;16.954;2024-03-17T05:39:31;2.7;43.5
69634;DHT22;56860;51.144;16.954;2024-03-17T05:40:30;2.7;43.6
69634;DHT22;56860;51.144;16.954;2024-03-17T05:41:31;2.7;43.7
69634;DHT22;56860;51.144;16.954;2024-03-17T05:42:30;2.7;43.5
69634;DHT22;56860;51.144;16.954;2024-03-17T05:43:31;2.7;43.6
69634;DHT22;56860;51.144;16.954;2024-03-17T05:44:30;2.7;43.5
69634;DHT22;56860;51.144;16.954;2024-03-17T05:45:31;2.6;43.5
69634;DHT22;56860;51.144;16.954;2024-03-17T05:46:30;2.6;43.6
69634;DHT22;56860;51.144;16.954;2024-03-17T05:47:31;2.7;43.6
69634;DHT22;56860;51.144;16.954;2024-03-17T05:48:30;2.7;43.5
69634;DHT22;56860;51.144;16.954;2024-03-17T05:49:31;2.8;43.4
69634;DHT22;56860;51.144;16.954;2024-03-17T05:50:31;2.8;43.3
69634;DHT22;56860;51.144;16.954;2024-03-17T05:51:30;2.9;43.2
69634;DHT22;56860;51.144;16.954;2024-03-17T05:52:31;3.0;43.0
69634;DHT22;56860;51.144;16.954;2024-03-17T05:53:31;3.0;42.8
69634;DHT22;56860;51.144;16.954;2024-03-17T05:54:31;3.0;42.5
69634;DHT22;56860;51.144;16.954;2024-03-17T05:55:31;3.1;42.5
69634;DHT22;56860;51.144;16.954;2024-03-17T05:56:30;3.2;42.2
69634;DHT22;56860;51.144;16.954;2024-03-17T05:57:30;3.1;41.9
69634;DHT22;56860;51.144;16.954;2024-03-17T05:58:30;3.1;41.9
69634;DHT22;56860;51.144;16.954;2024-03-17T05:59:30;3.1;41.6
69634;DHT22;56860;51.144;16.954;2024-03-17T06:00:30;3.1;41.7
69634;DHT22;56860;51.144;16.954;2024-03-17T06:01:31;3.1;42.0
69634;DHT22;56860;51.144;16.954;2024-03-17T06:02:31;3.2;41.9
69634;DHT22;56860;51.144;16.954;2024-03-17T06:03:30;3.2;41.7
69634;DHT22;56860;51.144;16.954;2024-03-17T06:04:31;3.3;41.5
69634;DHT22;56860;51.144;16.954;2024-03-17T06:05:32;3.3;41.5
69634;DHT22;56860;51.144;16.954;2024-03-17T06:06:31;3.3;41.4
69634;DHT22;56860;51.144;16.954;2024-03-17T06:07:31;unavailable;unavailable
69634;DHT22;56860;51.144;16.954;2024-03-17T06:08:31;3.2;41.5
69634;DHT22;56860;51.144;16.954;2024-03-17T06:09:30;3.3;41.4
69634;DHT22;56860;51.144;16.954;2024-03-17T06:10:31;3.4;41.0
69634;DHT22;56860;51.144;16.954;2024-03-17T06:11:31;3.5;40.8
69634;DHT22;56860;51.144;16.954;2024-03-17T06:12:30;unavailable;unavailable
69634;DHT22;56860;51.144;16.954;2024-03-17T06:13:31;3.5;40.2
69634;DHT22;56860;51.144;16.954;2024-03-17T06:14:31;3.5;39.6
69634;DHT22;56860;51.144;16.954;2024-03-17T06:15:30;3.6;40.1
69634;DHT22;56860;51.144;16.954;2024-03-17T06:16:30;3.6;40.0
69634;DHT22;56860;51.144;16.954;2024-03-17T06:17:30;unavailable;unavailable
69634;DHT22;56860;51.144;16.954;2024-03-17T06:18:31;3.7;39.4
69634;DHT22;56860;51.144;16.954;2024-03-17T06:19:31;3.8;39.5
69634;DHT22;56860;51.144;16.954;2024-03-17T06:20:30;3.8;39.2
69634;DHT22;56860;51.144;16.954;2024-03-17T06:21:31;3.8;39.2
69634;DHT22;56860;51.144;16.954;2024-03-17T06:22:30;3.9;39.2
69634;DHT22;56860;51.144;16.954;2024-03-17T06:23:30;3.9;39.1
69634;DHT22;56860;51.144;16.954;2024-03-17T06:24:31;4.0;38.3
69634;DHT22;56860;51.144;16.954;2024-03-17T06:25:31;4.0;38.1
69634;DHT22;56860;51.144;16.954;2024-03-17T06:26:30;4.0;38.1